Time;durP1;ratioP1;P1;durP2;ratioP2;P2;SDS_P1;SDS_P2;PMS_P1;PMS_P2;Temp;Humidity;BMP_temperature;BMP_pressure;BME280_temperature;BME280_humidity;BME280_pressure;Samples;Min_cycle;Max_cycle;Signal;HPM_P1;HPM_P2
2021/05/23 00:01:59;;;;;;;;;;;20.20;55.50;;;;;;5005173;28;19925;-54
2021/05/23 00:04:25;;;;;;;;;;;20.20;55.50;;;;;;5007538;28;19929;-57
2021/05/23 00:06:50;;;;;;;;;;;20.20;55.50;;;;;;5006628;28;19921;-57
2021/05/23 00:09:16;;;;;;;;;;;20.20;55.50;;;;;;5004307;28;19922;-53
2021/05/23 00:11:41;;;;;;;;;;;20.20;55.50;;;;;;5010078;28;20349;-56
2021/05/23 00:14:06;;;;;;;;;;;20.20;55.60;;;;;;4987208;28;20383;-54
2021/05/23 00:16:32;;;;;;;;;;;20.20;55.40;;;;;;4996987;28;19917;-52
2021/05/23 00:18:57;;;;;;;;;;;20.20;55.40;;;;;;5009037;28;19924;-54
2021/05/23 00:21:23;;;;;;;;;;;20.20;55.40;;;;;;5012418;28;19917;-58
2021/05/23 00:23:48;;;;;;;;;;;20.20;55.40;;;;;;5004913;28;20379;-51
2021/05/23 00:26:14;;;;;;;;;;;20.20;55.50;;;;;;5013985;28;19917;-53
2021/05/23 00:28:39;;;;;;;;;;;20.20;55.40;;;;;;5002789;28;20429;-56
2021/05/23 00:31:05;;;;;;;;;;;20.20;55.40;;;;;;5004800;28;19968;-53
2021/05/23 00:33:30;;;;;;;;;;;20.20;55.40;;;;;;5014271;28;20008;-53
2021/05/23 00:35:56;;;;;;;;;;;20.20;55.50;;;;;;5009860;28;20333;-53
2021/05/23 00:38:22;;;;;;;;;;;20.20;55.40;;;;;;5011853;28;21082;-52
2021/05/23 00:40:48;;;;;;;;;;;20.20;55.40;;;;;;5010867;28;19928;-55
2021/05/23 00:43:14;;;;;;;;;;;20.20;55.40;;;;;;5010845;28;19925;-51
2021/05/23 00:45:40;;;;;;;;;;;20.20;55.40;;;;;;4996353;28;19926;-52
2021/05/23 00:48:05;;;;;;;;;;;20.20;55.40;;;;;;5018148;28;20069;-54
2021/05/23 00:50:31;;;;;;;;;;;20.20;55.40;;;;;;5021248;28;19917;-53
2021/05/23 00:52:57;;;;;;;;;;;20.10;55.40;;;;;;5017396;28;19930;-54
2021/05/23 00:55:22;;;;;;;;;;;20.20;55.40;;;;;;5013199;28;20004;-56
2021/05/23 00:57:48;;;;;;;;;;;20.10;55.40;;;;;;5014195;28;19921;-52
2021/05/23 01:00:34;;;;;;;;;;;20.20;55.40;;;;;;5017223;28;19929;-53
2021/05/23 01:02:59;;;;;;;;;;;20.10;55.30;;;;;;5006949;28;19925;-54
2021/05/23 01:05:25;;;;;;;;;;;20.20;55.30;;;;;;5008420;28;20322;-57
2021/05/23 01:07:50;;;;;;;;;;;20.20;55.30;;;;;;4997164;28;19932;-56
2021/05/23 01:10:16;;;;;;;;;;;20.10;55.40;;;;;;5010641;28;19917;-54
2021/05/23 01:12:58;;;;;;;;;;;20.20;55.30;;;;;;5014907;28;19951;-56
2021/05/23 01:15:30;;;;;;;;;;;20.20;55.30;;;;;;5012974;28;19928;-55
2021/05/23 01:17:59;;;;;;;;;;;20.10;55.20;;;;;;5009596;28;20342;-57
2021/05/23 01:20:26;;;;;;;;;;;20.10;55.20;;;;;;5005665;28;19921;-57
2021/05/23 01:22:56;;;;;;;;;;;20.20;55.30;;;;;;5012258;28;20371;-55
2021/05/23 01:25:21;;;;;;;;;;;20.20;55.20;;;;;;5016633;28;19945;-54
2021/05/23 01:27:48;;;;;;;;;;;20.10;55.20;;;;;;4994102;28;19980;-56
2021/05/23 01:30:25;;;;;;;;;;;20.10;55.20;;;;;;5008250;28;19917;-56
2021/05/23 01:32:50;;;;;;;;;;;20.10;55.20;;;;;;4993874;28;19925;-54
2021/05/23 01:35:17;;;;;;;;;;;20.10;55.20;;;;;;4997627;28;19932;-51
2021/05/23 01:37:44;;;;;;;;;;;20.10;55.20;;;;;;5012896;28;19998;-54
2021/05/23 01:40:10;;;;;;;;;;;20.10;55.20;;;;;;4984702;28;20298;-57
2021/05/23 01:42:35;;;;;;;;;;;20.10;55.20;;;;;;5007764;28;19922;-55
2021/05/23 01:45:01;;;;;;;;;;;20.10;55.20;;;;;;5018092;28;19974;-57
2021/05/23 01:47:26;;;;;;;;;;;20.10;55.10;;;;;;4994228;28;19925;-55
2021/05/23 01:49:52;;;;;;;;;;;20.10;55.10;;;;;;5007699;28;19924;-55
2021/05/23 01:52:17;;;;;;;;;;;20.10;55.10;;;;;;5002909;28;19929;-55
2021/05/23 01:54:44;;;;;;;;;;;20.10;55.10;;;;;;4992448;28;19956;-55
2021/05/23 01:57:10;;;;;;;;;;;20.10;55.10;;;;;;4993607;28;19917;-56
2021/05/23 01:59:35;;;;;;;;;;;20.10;55.10;;;;;;5014576;28;19932;-54
2021/05/23 02:02:00;;;;;;;;;;;20.10;55.10;;;;;;5017013;28;19929;-55
2021/05/23 02:04:26;;;;;;;;;;;20.10;55.70;;;;;;5004191;28;20374;-58
2021/05/23 02:06:51;;;;;;;;;;;20.10;55.10;;;;;;4996319;28;19955;-54
2021/05/23 02:09:17;;;;;;;;;;;20.10;55.10;;;;;;5020023;28;19923;-56
2021/05/23 02:11:43;;;;;;;;;;;20.10;55.00;;;;;;5003741;28;19917;-55
2021/05/23 02:14:09;;;;;;;;;;;20.10;55.70;;;;;;5005669;28;19921;-52
2021/05/23 02:16:34;;;;;;;;;;;20.10;55.10;;;;;;5011146;28;19921;-58
2021/05/23 02:19:00;;;;;;;;;;;20.10;55.10;;;;;;5004634;28;20358;-54
2021/05/23 02:21:25;;;;;;;;;;;20.10;55.10;;;;;;5011734;28;19925;-54
2021/05/23 02:23:51;;;;;;;;;;;20.10;55.10;;;;;;5015435;28;19924;-58
2021/05/23 02:26:16;;;;;;;;;;;20.10;55.00;;;;;;5015270;28;19967;-55
2021/05/23 02:28:42;;;;;;;;;;;20.00;55.00;;;;;;5012633;28;20420;-54
2021/05/23 02:31:07;;;;;;;;;;;20.10;55.00;;;;;;5011523;28;19925;-52
2021/05/23 02:33:33;;;;;;;;;;;20.00;55.00;;;;;;5014381;28;19957;-55
2021/05/23 02:35:58;;;;;;;;;;;20.10;55.00;;;;;;5010095;28;19921;-57
2021/05/23 02:38:24;;;;;;;;;;;20.00;55.00;;;;;;5017508;28;20007;-53
2021/05/23 02:40:50;;;;;;;;;;;20.00;55.00;;;;;;5011806;28;20015;-52
2021/05/23 02:43:16;;;;;;;;;;;20.00;55.00;;;;;;5011485;28;19948;-57
2021/05/23 02:45:42;;;;;;;;;;;20.00;55.00;;;;;;5016351;28;19917;-57
2021/05/23 02:48:08;;;;;;;;;;;20.00;54.90;;;;;;5010427;28;19918;-56
2021/05/23 02:50:35;;;;;;;;;;;20.10;55.00;;;;;;5009495;28;20333;-57
2021/05/23 02:53:00;;;;;;;;;;;20.00;54.90;;;;;;5018856;28;20382;-54
2021/05/23 02:55:27;;;;;;;;;;;20.00;54.90;;;;;;5035977;22;19932;-53
2021/05/23 02:57:52;;;;;;;;;;;20.00;54.90;;;;;;4988880;28;19999;-57
2021/05/23 03:00:19;;;;;;;;;;;20.00;54.90;;;;;;4989502;28;20340;-59
2021/05/23 03:02:44;;;;;;;;;;;20.00;54.90;;;;;;5012603;28;20561;-57
2021/05/23 03:05:10;;;;;;;;;;;20.00;54.80;;;;;;5006668;28;19959;-57
2021/05/23 03:07:37;;;;;;;;;;;20.00;54.90;;;;;;5021399;28;19956;-56
2021/05/23 03:10:03;;;;;;;;;;;20.00;54.90;;;;;;5015536;28;20554;-57
2021/05/23 03:12:29;;;;;;;;;;;20.00;54.90;;;;;;5018763;28;19918;-57
2021/05/23 03:14:54;;;;;;;;;;;20.00;54.90;;;;;;5011806;28;20402;-57
2021/05/23 03:17:20;;;;;;;;;;;20.00;55.00;;;;;;5012549;28;19921;-57
2021/05/23 03:19:45;;;;;;;;;;;20.00;54.90;;;;;;5013274;28;20260;-58
2021/05/23 03:22:11;;;;;;;;;;;20.00;54.90;;;;;;5012646;28;20053;-56
2021/05/23 03:24:36;;;;;;;;;;;20.00;54.90;;;;;;5015518;28;19917;-56
2021/05/23 03:27:01;;;;;;;;;;;20.00;55.00;;;;;;5019774;28;19917;-58
2021/05/23 03:29:27;;;;;;;;;;;20.00;55.00;;;;;;5020102;28;19994;-54
2021/05/23 03:31:52;;;;;;;;;;;20.00;54.90;;;;;;5012118;28;19964;-60
2021/05/23 03:34:18;;;;;;;;;;;20.00;54.90;;;;;;5022189;28;19921;-56
2021/05/23 03:36:43;;;;;;;;;;;20.00;54.90;;;;;;5020429;28;19917;-60
2021/05/23 03:39:09;;;;;;;;;;;20.00;54.90;;;;;;5016851;28;19944;-60
2021/05/23 03:41:34;;;;;;;;;;;20.00;54.90;;;;;;5016212;28;19940;-60
2021/05/23 03:44:00;;;;;;;;;;;20.00;54.90;;;;;;5014307;28;19949;-58
2021/05/23 03:46:25;;;;;;;;;;;20.00;54.90;;;;;;5018688;28;19925;-57
2021/05/23 03:48:51;;;;;;;;;;;20.00;54.90;;;;;;5019396;28;20368;-58
2021/05/23 03:51:16;;;;;;;;;;;20.00;54.80;;;;;;5017312;28;19925;-57
2021/05/23 03:53:42;;;;;;;;;;;20.00;54.90;;;;;;5018539;28;20332;-58
2021/05/23 03:56:07;;;;;;;;;;;20.00;54.80;;;;;;5014869;28;19921;-59
2021/05/23 03:58:33;;;;;;;;;;;20.00;54.80;;;;;;5014009;28;19918;-56
2021/05/23 04:00:58;;;;;;;;;;;20.00;54.80;;;;;;5021230;28;20064;-58
2021/05/23 04:03:26;;;;;;;;;;;20.00;54.80;;;;;;5007408;28;19921;-57
2021/05/23 04:05:52;;;;;;;;;;;20.00;54.80;;;;;;5011043;28;19917;-57
2021/05/23 04:08:17;;;;;;;;;;;20.00;54.80;;;;;;5020864;28;19928;-55
2021/05/23 04:10:50;;;;;;;;;;;20.00;54.70;;;;;;5017843;28;19925;-57
2021/05/23 04:13:17;;;;;;;;;;;20.00;54.80;;;;;;5010995;28;19918;-56
2021/05/23 04:15:42;;;;;;;;;;;20.00;54.80;;;;;;5010098;28;19976;-58
2021/05/23 04:18:08;;;;;;;;;;;20.00;54.80;;;;;;5019404;28;19925;-59
2021/05/23 04:20:33;;;;;;;;;;;20.00;54.80;;;;;;5012392;28;19918;-62
2021/05/23 04:22:59;;;;;;;;;;;20.00;54.80;;;;;;5017808;28;19923;-57
2021/05/23 04:25:24;;;;;;;;;;;20.00;54.70;;;;;;5017984;28;19921;-59
2021/05/23 04:27:50;;;;;;;;;;;20.00;54.70;;;;;;5013915;28;19980;-59
2021/05/23 04:30:17;;;;;;;;;;;20.00;54.80;;;;;;5014447;28;20429;-56
2021/05/23 04:32:42;;;;;;;;;;;20.00;54.80;;;;;;5020465;28;20006;-55
2021/05/23 04:35:08;;;;;;;;;;;20.00;54.60;;;;;;5020502;28;20342;-57
2021/05/23 04:37:33;;;;;;;;;;;20.00;54.60;;;;;;5020081;28;19925;-63
2021/05/23 04:39:59;;;;;;;;;;;20.00;54.50;;;;;;5024593;28;19917;-55
2021/05/23 04:42:24;;;;;;;;;;;20.00;54.70;;;;;;5024489;28;20591;-57
2021/05/23 04:44:49;;;;;;;;;;;20.00;54.60;;;;;;5025154;28;19963;-57
2021/05/23 04:47:15;;;;;;;;;;;20.00;54.70;;;;;;5014053;28;19969;-55
2021/05/23 04:49:40;;;;;;;;;;;20.00;54.70;;;;;;5022225;28;19917;-58
2021/05/23 04:52:07;;;;;;;;;;;20.00;54.70;;;;;;5015799;28;19917;-57
2021/05/23 04:54:32;;;;;;;;;;;20.00;54.70;;;;;;5016014;28;20301;-54
2021/05/23 04:56:57;;;;;;;;;;;19.90;55.30;;;;;;5006672;28;19917;-53
2021/05/23 04:59:23;;;;;;;;;;;19.90;54.70;;;;;;5014182;28;19925;-58
2021/05/23 05:01:48;;;;;;;;;;;19.90;54.70;;;;;;5015284;28;19928;-59
2021/05/23 05:04:14;;;;;;;;;;;19.90;54.70;;;;;;5016575;28;19917;-55
2021/05/23 05:06:39;;;;;;;;;;;20.00;54.70;;;;;;5023801;28;19925;-57
2021/05/23 05:09:05;;;;;;;;;;;19.90;54.70;;;;;;5023737;28;20302;-56
2021/05/23 05:11:30;;;;;;;;;;;19.90;54.70;;;;;;5020809;28;20050;-53
2021/05/23 05:13:56;;;;;;;;;;;19.90;54.70;;;;;;5015148;28;20006;-56
2021/05/23 05:16:21;;;;;;;;;;;20.00;54.70;;;;;;5019066;28;19921;-59
2021/05/23 05:18:46;;;;;;;;;;;19.90;54.60;;;;;;5013612;28;19916;-54
2021/05/23 05:21:12;;;;;;;;;;;20.00;54.70;;;;;;5016541;28;19921;-56
2021/05/23 05:23:37;;;;;;;;;;;19.90;54.60;;;;;;5012845;28;19924;-58
2021/05/23 05:26:03;;;;;;;;;;;20.00;54.70;;;;;;5019165;28;19917;-57
2021/05/23 05:28:29;;;;;;;;;;;19.90;54.60;;;;;;5011703;28;19924;-56
2021/05/23 05:30:54;;;;;;;;;;;19.90;54.70;;;;;;5012644;28;20520;-56
2021/05/23 05:33:20;;;;;;;;;;;19.90;54.70;;;;;;5021085;28;19925;-58
2021/05/23 05:35:45;;;;;;;;;;;20.00;54.70;;;;;;5017020;28;19951;-56
2021/05/23 05:38:13;;;;;;;;;;;19.90;54.70;;;;;;5011188;28;20379;-58
2021/05/23 05:40:38;;;;;;;;;;;19.90;54.70;;;;;;5014559;28;19964;-59
2021/05/23 05:43:03;;;;;;;;;;;19.90;54.70;;;;;;5013735;28;19925;-56
2021/05/23 05:45:29;;;;;;;;;;;19.90;54.70;;;;;;5015373;28;20814;-55
2021/05/23 05:47:54;;;;;;;;;;;19.90;54.70;;;;;;5018705;28;19926;-58
2021/05/23 05:50:20;;;;;;;;;;;19.90;54.70;;;;;;5018074;28;19923;-57
2021/05/23 05:52:45;;;;;;;;;;;19.90;54.70;;;;;;5017682;28;19918;-54
2021/05/23 05:55:11;;;;;;;;;;;19.90;54.70;;;;;;5010063;28;19925;-58
2021/05/23 05:57:36;;;;;;;;;;;19.90;54.60;;;;;;5019918;28;20012;-56
2021/05/23 06:00:03;;;;;;;;;;;19.90;54.60;;;;;;5020921;28;19917;-57
2021/05/23 06:02:28;;;;;;;;;;;20.00;54.70;;;;;;5016480;28;20556;-58
2021/05/23 06:04:54;;;;;;;;;;;19.90;54.70;;;;;;5019484;28;19925;-57
2021/05/23 06:07:19;;;;;;;;;;;20.00;54.80;;;;;;5012440;28;20475;-56
2021/05/23 06:09:45;;;;;;;;;;;19.90;54.80;;;;;;5021353;28;19921;-59
2021/05/23 06:12:10;;;;;;;;;;;19.90;54.80;;;;;;5014346;28;19925;-55
2021/05/23 06:14:36;;;;;;;;;;;19.90;54.90;;;;;;5017482;28;19921;-58
2021/05/23 06:17:01;;;;;;;;;;;20.00;54.90;;;;;;5018075;28;19963;-57
2021/05/23 06:19:26;;;;;;;;;;;20.00;55.00;;;;;;5022689;28;19918;-56
2021/05/23 06:21:52;;;;;;;;;;;19.90;55.20;;;;;;5013508;28;20345;-59
2021/05/23 06:24:17;;;;;;;;;;;19.90;55.30;;;;;;5020970;28;19925;-58
2021/05/23 06:26:43;;;;;;;;;;;19.90;55.60;;;;;;5021537;28;19921;-53
2021/05/23 06:29:08;;;;;;;;;;;19.90;55.80;;;;;;5011712;28;20026;-56
2021/05/23 06:31:34;;;;;;;;;;;20.00;56.00;;;;;;5013365;28;19921;-54
2021/05/23 06:33:59;;;;;;;;;;;20.00;56.20;;;;;;5008008;28;21802;-58
2021/05/23 06:36:25;;;;;;;;;;;19.90;56.40;;;;;;5017784;28;19921;-58
2021/05/23 06:38:50;;;;;;;;;;;20.00;57.20;;;;;;5019359;28;19918;-55
2021/05/23 06:41:16;;;;;;;;;;;20.00;58.40;;;;;;5021493;28;19929;-58
2021/05/23 06:43:41;;;;;;;;;;;19.90;59.60;;;;;;5014746;28;20497;-59
2021/05/23 06:46:06;;;;;;;;;;;19.90;60.60;;;;;;5018174;28;19918;-56
2021/05/23 06:48:32;;;;;;;;;;;19.90;61.30;;;;;;5022764;28;19923;-57
2021/05/23 06:50:57;;;;;;;;;;;19.90;61.30;;;;;;5017129;28;19918;-56
2021/05/23 06:53:23;;;;;;;;;;;19.90;62.00;;;;;;5014576;28;19921;-54
2021/05/23 06:55:48;;;;;;;;;;;19.90;62.00;;;;;;5016891;28;20015;-57
2021/05/23 06:58:14;;;;;;;;;;;19.90;62.20;;;;;;5016757;28;20033;-55
2021/05/23 07:00:39;;;;;;;;;;;19.90;61.60;;;;;;5021120;28;19924;-54
2021/05/23 07:03:05;;;;;;;;;;;19.90;61.30;;;;;;5018840;28;19917;-60
2021/05/23 07:05:30;;;;;;;;;;;19.90;60.70;;;;;;5021929;28;20437;-59
2021/05/23 07:07:55;;;;;;;;;;;19.90;60.50;;;;;;5016891;28;19918;-57
2021/05/23 07:10:21;;;;;;;;;;;19.90;60.20;;;;;;5018739;28;19917;-55
2021/05/23 07:12:46;;;;;;;;;;;19.90;59.90;;;;;;5021847;28;19948;-57
2021/05/23 07:15:12;;;;;;;;;;;19.90;59.80;;;;;;5016466;28;21340;-54
2021/05/23 07:17:37;;;;;;;;;;;19.90;59.50;;;;;;5018165;28;19917;-56
2021/05/23 07:20:03;;;;;;;;;;;19.90;59.30;;;;;;5021896;28;20275;-56
2021/05/23 07:22:29;;;;;;;;;;;19.90;59.20;;;;;;5021669;28;19929;-58
2021/05/23 07:24:54;;;;;;;;;;;20.00;59.00;;;;;;5022998;28;19917;-55
2021/05/23 07:27:19;;;;;;;;;;;20.00;58.80;;;;;;5022305;28;19921;-57
2021/05/23 07:29:45;;;;;;;;;;;20.00;59.10;;;;;;5019609;28;19944;-58
2021/05/23 07:32:10;;;;;;;;;;;20.00;59.90;;;;;;5021822;28;19924;-56
2021/05/23 07:34:36;;;;;;;;;;;20.00;60.10;;;;;;5016359;28;19929;-59
2021/05/23 07:37:01;;;;;;;;;;;20.00;59.90;;;;;;5018270;28;19921;-58
2021/05/23 07:39:27;;;;;;;;;;;20.00;59.60;;;;;;5014291;28;19917;-55
2021/05/23 07:41:52;;;;;;;;;;;20.10;59.40;;;;;;5020304;28;19928;-55
2021/05/23 07:44:18;;;;;;;;;;;20.10;59.10;;;;;;5012966;28;19925;-58
2021/05/23 07:46:43;;;;;;;;;;;20.10;58.90;;;;;;5016016;28;19926;-57
2021/05/23 07:49:09;;;;;;;;;;;20.10;58.50;;;;;;5020511;28;19917;-58
2021/05/23 07:51:34;;;;;;;;;;;20.10;58.30;;;;;;5021464;28;20429;-57
2021/05/23 07:54:00;;;;;;;;;;;20.10;58.20;;;;;;5020984;28;19948;-58
2021/05/23 07:56:25;;;;;;;;;;;20.10;58.00;;;;;;5013898;28;19924;-56
2021/05/23 07:58:51;;;;;;;;;;;20.10;57.90;;;;;;5016920;28;20086;-58
2021/05/23 08:01:16;;;;;;;;;;;20.10;57.80;;;;;;5014120;28;19978;-58
2021/05/23 08:03:42;;;;;;;;;;;20.10;57.50;;;;;;5015747;28;19918;-57
2021/05/23 08:06:08;;;;;;;;;;;20.10;57.50;;;;;;5003962;28;19921;-57
2021/05/23 08:08:34;;;;;;;;;;;20.10;57.20;;;;;;5017665;28;19967;-57
2021/05/23 08:11:00;;;;;;;;;;;20.10;57.00;;;;;;5020894;28;19924;-59
2021/05/23 08:13:26;;;;;;;;;;;20.10;56.70;;;;;;5012290;28;20322;-59
2021/05/23 08:15:51;;;;;;;;;;;20.10;56.40;;;;;;5017669;28;19927;-57
2021/05/23 08:18:22;;;;;;;;;;;20.10;56.20;;;;;;5015138;28;19917;-59
2021/05/23 08:20:49;;;;;;;;;;;20.10;56.60;;;;;;5012117;28;19919;-59
2021/05/23 08:23:14;;;;;;;;;;;20.10;55.60;;;;;;5015246;28;19918;-57
2021/05/23 08:25:40;;;;;;;;;;;20.10;55.30;;;;;;5020763;28;20342;-57
2021/05/23 08:28:05;;;;;;;;;;;20.10;55.20;;;;;;5020070;28;20605;-58
2021/05/23 08:30:31;;;;;;;;;;;20.10;54.90;;;;;;5013749;28;19917;-59
2021/05/23 08:32:56;;;;;;;;;;;20.10;55.00;;;;;;5018896;28;19925;-58
2021/05/23 08:35:22;;;;;;;;;;;20.10;55.10;;;;;;5017026;28;19925;-58
2021/05/23 08:37:47;;;;;;;;;;;20.00;54.90;;;;;;5017460;28;20108;-58
2021/05/23 08:40:13;;;;;;;;;;;20.00;55.00;;;;;;5017008;28;19918;-59
2021/05/23 08:42:39;;;;;;;;;;;20.00;55.00;;;;;;5010519;28;19975;-58
2021/05/23 08:45:04;;;;;;;;;;;20.00;55.20;;;;;;5011180;28;19949;-58
2021/05/23 08:47:30;;;;;;;;;;;20.00;55.20;;;;;;5013697;28;21786;-59
2021/05/23 08:49:55;;;;;;;;;;;20.00;55.20;;;;;;5008327;28;19960;-56
2021/05/23 08:52:21;;;;;;;;;;;20.00;55.30;;;;;;5016531;28;19924;-58
2021/05/23 08:54:48;;;;;;;;;;;20.00;55.30;;;;;;5026373;22;19928;-72
2021/05/23 08:57:18;;;;;;;;;;;20.00;55.30;;;;;;5018146;28;20440;-73
2021/05/23 08:59:43;;;;;;;;;;;20.00;55.40;;;;;;5018717;28;19929;-73
2021/05/23 09:02:09;;;;;;;;;;;20.00;55.40;;;;;;5019979;28;19924;-74
2021/05/23 09:04:34;;;;;;;;;;;20.00;55.40;;;;;;5018905;28;20272;-73
2021/05/23 09:07:03;;;;;;;;;;;20.00;55.50;;;;;;5015907;28;19993;-73
2021/05/23 09:09:29;;;;;;;;;;;20.00;55.60;;;;;;5017838;28;20270;-71
2021/05/23 09:11:55;;;;;;;;;;;20.00;55.60;;;;;;5016822;28;19924;-72
2021/05/23 09:14:32;;;;;;;;;;;20.00;55.60;;;;;;5022787;28;19975;-72
2021/05/23 09:16:58;;;;;;;;;;;20.00;55.60;;;;;;5024331;28;19918;-73
2021/05/23 09:19:25;;;;;;;;;;;20.00;55.70;;;;;;5022097;28;19920;-73
2021/05/23 09:21:50;;;;;;;;;;;20.00;55.70;;;;;;5023275;28;19921;-72
2021/05/23 09:24:16;;;;;;;;;;;20.00;55.70;;;;;;5018974;28;19916;-71
2021/05/23 09:26:45;;;;;;;;;;;20.00;55.70;;;;;;5020661;28;19971;-72
2021/05/23 09:29:14;;;;;;;;;;;20.00;55.70;;;;;;5023137;28;19956;-71
2021/05/23 09:31:39;;;;;;;;;;;20.00;55.70;;;;;;5025640;28;19955;-72
2021/05/23 09:34:05;;;;;;;;;;;20.00;55.70;;;;;;5018537;28;19929;-73
2021/05/23 09:36:42;;;;;;;;;;;20.00;55.70;;;;;;5024095;28;19928;-71
2021/05/23 09:39:07;;;;;;;;;;;20.00;55.70;;;;;;5024838;28;19917;-71
2021/05/23 09:41:34;;;;;;;;;;;20.00;55.70;;;;;;5019544;28;22045;-72
2021/05/23 09:44:16;;;;;;;;;;;20.00;55.70;;;;;;5025480;28;19921;-72
2021/05/23 09:46:51;;;;;;;;;;;20.00;55.80;;;;;;5023949;28;20382;-72
2021/05/23 09:49:16;;;;;;;;;;;20.00;55.80;;;;;;5002335;28;20430;-71
2021/05/23 09:52:08;;;;;;;;;;;20.00;55.80;;;;;;5025457;28;20003;-71
2021/05/23 09:54:43;;;;;;;;;;;20.00;55.80;;;;;;5018200;28;20007;-71
2021/05/23 09:57:12;;;;;;;;;;;20.00;55.90;;;;;;5024431;28;20571;-71
2021/05/23 09:59:37;;;;;;;;;;;20.00;56.00;;;;;;5019504;28;20454;-73
2021/05/23 10:02:06;;;;;;;;;;;19.90;56.00;;;;;;5018478;28;19933;-71
2021/05/23 10:04:31;;;;;;;;;;;19.90;56.00;;;;;;5024076;28;19952;-73
2021/05/23 10:07:00;;;;;;;;;;;19.90;56.10;;;;;;5023809;28;20086;-71
2021/05/23 10:09:26;;;;;;;;;;;19.90;56.10;;;;;;5021553;28;19917;-73
2021/05/23 10:11:52;;;;;;;;;;;19.90;56.10;;;;;;5026630;28;20033;-72
2021/05/23 10:14:17;;;;;;;;;;;20.00;56.20;;;;;;5025134;28;20397;-73
2021/05/23 10:16:43;;;;;;;;;;;19.90;56.10;;;;;;5022434;28;19924;-72
2021/05/23 10:19:08;;;;;;;;;;;20.00;56.20;;;;;;5024232;28;19921;-71
2021/05/23 10:21:34;;;;;;;;;;;20.00;56.20;;;;;;5023496;28;20382;-72
2021/05/23 10:24:00;;;;;;;;;;;19.90;56.10;;;;;;5020345;28;19924;-71
2021/05/23 10:26:25;;;;;;;;;;;19.90;56.10;;;;;;5021869;28;20477;-73
2021/05/23 10:28:51;;;;;;;;;;;19.90;56.20;;;;;;5006099;28;19960;-71
2021/05/23 10:31:26;;;;;;;;;;;19.90;56.20;;;;;;5020701;28;19927;-71
2021/05/23 10:33:52;;;;;;;;;;;20.00;56.30;;;;;;5023594;28;20594;-72
2021/05/23 10:36:27;;;;;;;;;;;19.90;56.20;;;;;;5018638;28;19917;-73
2021/05/23 10:38:54;;;;;;;;;;;19.90;56.20;;;;;;5019750;28;20736;-71
2021/05/23 10:41:19;;;;;;;;;;;19.90;56.20;;;;;;5020181;28;19921;-71
2021/05/23 10:43:47;;;;;;;;;;;19.90;56.20;;;;;;5021018;28;19923;-73
2021/05/23 10:46:13;;;;;;;;;;;19.90;56.20;;;;;;5022369;28;20429;-72
2021/05/23 10:48:39;;;;;;;;;;;19.90;56.20;;;;;;5017308;28;19922;-72
2021/05/23 10:51:13;;;;;;;;;;;19.90;56.20;;;;;;5023649;28;20812;-73
2021/05/23 10:53:39;;;;;;;;;;;19.90;56.20;;;;;;5018958;28;20016;-72
2021/05/23 10:56:04;;;;;;;;;;;19.90;56.20;;;;;;5020088;28;19925;-72
2021/05/23 10:58:30;;;;;;;;;;;19.90;56.20;;;;;;5023782;28;20604;-71
2021/05/23 11:00:56;;;;;;;;;;;19.90;56.30;;;;;;5018902;28;19944;-72
2021/05/23 11:03:24;;;;;;;;;;;19.90;56.20;;;;;;5023470;28;19918;-72
2021/05/23 11:05:59;;;;;;;;;;;19.90;56.30;;;;;;5022763;28;19947;-73
2021/05/23 11:08:28;;;;;;;;;;;19.90;56.30;;;;;;5017854;28;19975;-72
2021/05/23 11:10:53;;;;;;;;;;;19.90;56.30;;;;;;5016532;28;19932;-72
2021/05/23 11:13:32;;;;;;;;;;;19.90;56.20;;;;;;5020661;28;19917;-73
2021/05/23 11:16:10;;;;;;;;;;;19.90;56.30;;;;;;5015982;28;19922;-72
2021/05/23 11:18:36;;;;;;;;;;;19.90;56.20;;;;;;5016616;28;20051;-71
2021/05/23 11:21:05;;;;;;;;;;;19.90;56.10;;;;;;5017789;28;20023;-72
2021/05/23 11:23:31;;;;;;;;;;;19.90;56.10;;;;;;5022583;28;19924;-72
2021/05/23 11:26:03;;;;;;;;;;;19.90;56.00;;;;;;5017049;28;19917;-72
2021/05/23 11:28:28;;;;;;;;;;;19.90;56.00;;;;;;5023421;28;20427;-71
2021/05/23 11:30:53;;;;;;;;;;;19.90;56.00;;;;;;5022560;28;19921;-73
2021/05/23 11:33:20;;;;;;;;;;;19.90;56.00;;;;;;5020574;28;20008;-73
2021/05/23 11:35:49;;;;;;;;;;;19.90;56.00;;;;;;5025076;28;19929;-72
2021/05/23 11:38:14;;;;;;;;;;;19.90;56.00;;;;;;5024645;28;19921;-74
2021/05/23 11:40:40;;;;;;;;;;;19.90;56.00;;;;;;5023921;28;22052;-73
2021/05/23 11:43:08;;;;;;;;;;;19.90;56.00;;;;;;5019638;28;20409;-72
2021/05/23 11:45:34;;;;;;;;;;;19.90;56.00;;;;;;5020490;28;19944;-74
2021/05/23 11:48:01;;;;;;;;;;;19.90;56.00;;;;;;5020709;28;20362;-73
2021/05/23 11:50:27;;;;;;;;;;;20.00;56.10;;;;;;5022258;28;19918;-73
2021/05/23 11:52:59;;;;;;;;;;;19.90;56.00;;;;;;5020563;28;19921;-74
2021/05/23 11:55:25;;;;;;;;;;;19.90;56.10;;;;;;5016676;28;20411;-73
2021/05/23 11:57:51;;;;;;;;;;;19.90;56.10;;;;;;5021175;28;19918;-74
2021/05/23 12:00:20;;;;;;;;;;;19.90;56.20;;;;;;5010573;28;19917;-70
2021/05/23 12:02:47;;;;;;;;;;;19.90;56.20;;;;;;5017700;28;19959;-72
2021/05/23 12:05:12;;;;;;;;;;;19.90;56.30;;;;;;5021244;28;19921;-72
2021/05/23 12:07:38;;;;;;;;;;;19.90;56.30;;;;;;5019645;28;20012;-71
2021/05/23 12:10:04;;;;;;;;;;;19.90;56.20;;;;;;5019607;28;19924;-71
2021/05/23 12:12:29;;;;;;;;;;;19.90;56.30;;;;;;5003594;28;19936;-73
2021/05/23 12:14:55;;;;;;;;;;;19.90;56.20;;;;;;5021243;28;19921;-72
2021/05/23 12:17:20;;;;;;;;;;;19.90;56.20;;;;;;5021280;28;19924;-72
2021/05/23 12:22:22;;;;;;;;;;;19.90;56.30;;;;;;5021318;28;19971;-73
2021/05/23 12:24:48;;;;;;;;;;;19.90;56.40;;;;;;5021267;28;20329;-72
2021/05/23 12:27:32;;;;;;;;;;;19.90;56.20;;;;;;5016465;28;19921;-73
2021/05/23 12:30:07;;;;;;;;;;;19.90;56.20;;;;;;5016599;28;19925;-72
2021/05/23 12:32:39;;;;;;;;;;;19.90;56.20;;;;;;5015378;28;19924;-71
2021/05/23 12:35:09;;;;;;;;;;;19.90;56.20;;;;;;5022740;28;20212;-73
2021/05/23 12:37:34;;;;;;;;;;;19.90;56.10;;;;;;5018832;28;19924;-72
2021/05/23 12:39:59;;;;;;;;;;;19.90;56.10;;;;;;5018649;28;19918;-72
2021/05/23 12:42:31;;;;;;;;;;;20.00;56.20;;;;;;5008367;28;19928;-72
2021/05/23 12:45:04;;;;;;;;;;;19.90;56.10;;;;;;5027037;28;19924;-73
2021/05/23 12:47:30;;;;;;;;;;;19.90;56.20;;;;;;5025908;28;19925;-72
2021/05/23 12:49:58;;;;;;;;;;;19.90;56.10;;;;;;5025133;28;19935;-72
2021/05/23 12:52:24;;;;;;;;;;;19.90;56.20;;;;;;5015821;28;20427;-72
2021/05/23 12:54:49;;;;;;;;;;;19.90;56.10;;;;;;5022248;28;19925;-72
2021/05/23 12:57:16;;;;;;;;;;;19.90;56.20;;;;;;5021782;28;20471;-71
2021/05/23 12:59:42;;;;;;;;;;;19.90;56.20;;;;;;5026447;28;19986;-72
2021/05/23 13:02:07;;;;;;;;;;;19.90;56.20;;;;;;5018542;28;20396;-72
2021/05/23 13:04:34;;;;;;;;;;;19.90;56.30;;;;;;5026211;28;19917;-73
2021/05/23 13:07:01;;;;;;;;;;;19.90;56.20;;;;;;5024618;28;19925;-71
2021/05/23 13:09:38;;;;;;;;;;;19.90;56.20;;;;;;5019126;28;20480;-71
2021/05/23 13:12:04;;;;;;;;;;;19.90;56.30;;;;;;5025690;28;19917;-72
2021/05/23 13:14:32;;;;;;;;;;;19.90;56.30;;;;;;5018560;28;19929;-72
2021/05/23 13:16:59;;;;;;;;;;;20.00;56.30;;;;;;5023516;28;19928;-72
2021/05/23 13:19:24;;;;;;;;;;;19.90;56.20;;;;;;5024793;28;20020;-72
2021/05/23 13:21:50;;;;;;;;;;;19.90;56.20;;;;;;5023629;28;20004;-72
2021/05/23 13:24:16;;;;;;;;;;;19.90;56.20;;;;;;5013500;28;19925;-72
2021/05/23 13:26:45;;;;;;;;;;;19.90;56.20;;;;;;5016238;28;19921;-72
2021/05/23 13:29:11;;;;;;;;;;;19.90;56.30;;;;;;5017559;28;19929;-73
2021/05/23 13:31:36;;;;;;;;;;;19.90;56.30;;;;;;5021721;28;20413;-72
2021/05/23 13:34:02;;;;;;;;;;;19.90;56.20;;;;;;5026711;28;20401;-71
2021/05/23 13:36:27;;;;;;;;;;;19.90;56.20;;;;;;5021945;28;19917;-73
2021/05/23 13:38:53;;;;;;;;;;;19.90;56.20;;;;;;5027046;28;19921;-72
2021/05/23 13:41:18;;;;;;;;;;;19.90;56.30;;;;;;5026793;28;20467;-70
2021/05/23 13:43:44;;;;;;;;;;;19.90;56.20;;;;;;5016422;28;19925;-71
2021/05/23 13:46:09;;;;;;;;;;;19.90;56.20;;;;;;5022735;28;20294;-72
2021/05/23 13:48:36;;;;;;;;;;;20.00;56.20;;;;;;5021188;28;19917;-72
2021/05/23 13:51:01;;;;;;;;;;;19.90;56.20;;;;;;5019207;28;19918;-72
2021/05/23 13:53:27;;;;;;;;;;;20.00;56.20;;;;;;5023525;28;19924;-73
2021/05/23 13:55:52;;;;;;;;;;;20.00;56.20;;;;;;5024143;28;19969;-71
2021/05/23 13:58:18;;;;;;;;;;;20.00;56.20;;;;;;5024755;28;20378;-73
2021/05/23 14:00:44;;;;;;;;;;;20.00;56.20;;;;;;5020028;28;19948;-73
2021/05/23 14:03:20;;;;;;;;;;;20.00;56.10;;;;;;5013035;28;19925;-72
2021/05/23 14:05:47;;;;;;;;;;;20.00;56.10;;;;;;5018844;28;20290;-72
2021/05/23 14:08:12;;;;;;;;;;;20.00;56.30;;;;;;5023927;28;19917;-71
2021/05/23 14:10:38;;;;;;;;;;;19.90;56.20;;;;;;5025641;28;19975;-70
2021/05/23 14:13:03;;;;;;;;;;;20.00;56.40;;;;;;5024598;28;19921;-72
2021/05/23 14:15:29;;;;;;;;;;;19.90;56.20;;;;;;5023517;28;20032;-72